Terminal Aerodrome Forecast
Issued by NWS

Home | Current Version | Previous Version | Text Only | Print | Product List | Glossary On
Versions: 1 2 3 4 5 6 7 8 9 10 11 12 13 14 15 16 17 18 19 20 21 22 23 24
000
FTUS41 KRNK 290059 AAA
TAFLWB
TAF AMD
KLWB 290059Z 2901/2924 27003KT P6SM VCSH BKN050
      TEMPO 2901/2905 3SM TSRA OVC025CB
     FM290500 28004KT 5SM -SHRA OVC015
     FM291000 28006KT 5SM BR VCSH OVC010
     FM291400 29007KT P6SM OVC025
     FM291900 29005KT P6SM VCSH SCT025 BKN040=

USA.gov is the U.S. government's official web portal to all federal, state and local government web resources and services.